Time;durP1;ratioP1;P1;durP2;ratioP2;P2;SDS_P1;SDS_P2;PMS_P1;PMS_P2;Temp;Humidity;BMP_temperature;BMP_pressure;BME280_temperature;BME280_humidity;BME280_pressure;Samples;Min_cycle;Max_cycle;Signal;HPM_P1;HPM_P2
2022/05/24 00:01:52;;;;;;;0.00;0.00;;;;;;;;;;5059528;27;93155;-74
2022/05/24 00:04:19;;;;;;;0.00;0.00;;;;;;;;;;5058941;27;93748;-74
2022/05/24 00:06:46;;;;;;;0.00;0.00;;;;;;;;;;5058231;27;92274;-75
2022/05/24 00:09:12;;;;;;;0.05;0.05;;;;;;;;;;5058786;27;93526;-74
2022/05/24 00:11:39;;;;;;;0.15;0.15;;;;;;;;;;5058080;27;93435;-74
2022/05/24 00:14:05;;;;;;;0.00;0.00;;;;;;;;;;5060838;27;92346;-74
2022/05/24 00:16:32;;;;;;;0.00;0.00;;;;;;;;;;5056207;27;95884;-74
2022/05/24 00:18:58;;;;;;;0.00;0.00;;;;;;;;;;5058094;27;92395;-74
2022/05/24 00:21:25;;;;;;;0.17;0.17;;;;;;;;;;5058217;27;93315;-74
2022/05/24 00:23:51;;;;;;;0.00;0.00;;;;;;;;;;5058286;27;93040;-74
2022/05/24 00:26:24;;;;;;;0.00;0.00;;;;;;;;;;5057850;27;92192;-74
2022/05/24 00:28:50;;;;;;;0.05;0.05;;;;;;;;;;5057627;27;92309;-74
2022/05/24 00:31:17;;;;;;;0.45;0.45;;;;;;;;;;5051898;27;93555;-74
2022/05/24 00:33:43;;;;;;;0.10;0.10;;;;;;;;;;5058455;27;92893;-74
2022/05/24 00:36:10;;;;;;;0.15;0.15;;;;;;;;;;5060940;27;92671;-74
2022/05/24 00:38:37;;;;;;;0.00;0.00;;;;;;;;;;5057795;27;92190;-74
2022/05/24 00:41:17;;;;;;;0.05;0.05;;;;;;;;;;5055702;27;94715;-75
2022/05/24 00:43:46;;;;;;;0.00;0.00;;;;;;;;;;5057677;27;94058;-74
2022/05/24 00:46:24;;;;;;;0.00;0.00;;;;;;;;;;5057657;27;92141;-74
2022/05/24 00:49:04;;;;;;;0.28;0.28;;;;;;;;;;5057324;27;93784;-74
2022/05/24 00:51:34;;;;;;;0.00;0.00;;;;;;;;;;5039414;27;93488;-75
2022/05/24 00:54:00;;;;;;;0.00;0.00;;;;;;;;;;5057579;27;92355;-74
2022/05/24 00:56:45;;;;;;;0.10;0.10;;;;;;;;;;5060482;27;92826;-74
2022/05/24 00:59:30;;;;;;;0.15;0.15;;;;;;;;;;5058301;27;91710;-74
2022/05/24 01:01:56;;;;;;;0.00;0.00;;;;;;;;;;5057323;27;92781;-74
2022/05/24 01:04:23;;;;;;;0.10;0.10;;;;;;;;;;5057150;27;93663;-74
2022/05/24 01:06:50;;;;;;;0.08;0.08;;;;;;;;;;5055660;27;94860;-74
2022/05/24 01:09:25;;;;;;;0.10;0.10;;;;;;;;;;5057431;27;95733;-74
2022/05/24 01:11:54;;;;;;;0.00;0.00;;;;;;;;;;5057354;27;94231;-74
2022/05/24 01:14:22;;;;;;;0.00;0.00;;;;;;;;;;5057377;27;92116;-74
2022/05/24 01:16:49;;;;;;;1.13;0.47;;;;;;;;;;5039334;27;93286;-74
2022/05/24 01:19:29;;;;;;;0.08;0.08;;;;;;;;;;5060298;27;93418;-74
2022/05/24 01:21:58;;;;;;;0.00;0.00;;;;;;;;;;5057810;27;92443;-74
2022/05/24 01:24:30;;;;;;;0.10;0.10;;;;;;;;;;5057526;27;91877;-73
2022/05/24 01:26:57;;;;;;;0.00;0.00;;;;;;;;;;5056840;27;92348;-73
2022/05/24 01:29:24;;;;;;;0.00;0.00;;;;;;;;;;5057101;27;92409;-73
2022/05/24 01:37:22;;;;;;;0.00;0.00;;;;;;;;;;5057041;27;93394;-74
2022/05/24 01:39:51;;;;;;;0.00;0.00;;;;;;;;;;5038554;27;93419;-73
2022/05/24 01:42:18;;;;;;;0.00;0.00;;;;;;;;;;5060282;27;92347;-74
2022/05/24 01:44:48;;;;;;;0.00;0.00;;;;;;;;;;5056791;27;92993;-73
2022/05/24 01:47:17;;;;;;;0.00;0.00;;;;;;;;;;5056831;27;92279;-74
2022/05/24 01:49:45;;;;;;;0.03;0.03;;;;;;;;;;5057527;27;93158;-73
2022/05/24 01:52:14;;;;;;;0.08;0.08;;;;;;;;;;5056151;27;93730;-73
2022/05/24 01:54:45;;;;;;;0.00;0.00;;;;;;;;;;5056981;27;92363;-73
2022/05/24 01:57:13;;;;;;;0.10;0.10;;;;;;;;;;5055434;27;95093;-73
2022/05/24 01:59:44;;;;;;;0.30;0.30;;;;;;;;;;5056588;27;93402;-73
2022/05/24 02:02:10;;;;;;;0.20;0.20;;;;;;;;;;5059054;27;92430;-74
2022/05/24 02:04:37;;;;;;;0.30;0.30;;;;;;;;;;5062566;27;93346;-74
2022/05/24 02:07:09;;;;;;;0.00;0.00;;;;;;;;;;5059769;27;92249;-73
2022/05/24 02:09:37;;;;;;;0.00;0.00;;;;;;;;;;5060391;27;93561;-73
2022/05/24 02:12:09;;;;;;;0.00;0.00;;;;;;;;;;5063263;27;93752;-73
2022/05/24 02:14:39;;;;;;;0.00;0.00;;;;;;;;;;5060333;27;91638;-74
2022/05/24 02:17:15;;;;;;;0.00;0.00;;;;;;;;;;5060043;27;92622;-74
2022/05/24 02:19:44;;;;;;;0.20;0.20;;;;;;;;;;5059874;27;93546;-74
2022/05/24 02:22:16;;;;;;;0.00;0.00;;;;;;;;;;5058237;27;94516;-74
2022/05/24 02:24:42;;;;;;;0.10;0.10;;;;;;;;;;5059932;27;96165;-73
2022/05/24 02:27:09;;;;;;;0.10;0.10;;;;;;;;;;5062321;27;93908;-73
2022/05/24 02:29:35;;;;;;;0.00;0.00;;;;;;;;;;5059955;27;93423;-74
2022/05/24 02:32:02;;;;;;;0.05;0.05;;;;;;;;;;5059533;27;93858;-73
2022/05/24 02:34:28;;;;;;;0.00;0.00;;;;;;;;;;5058660;27;92364;-74
2022/05/24 02:36:54;;;;;;;0.00;0.00;;;;;;;;;;5060070;27;93517;-73
2022/05/24 02:39:21;;;;;;;0.10;0.10;;;;;;;;;;5059885;27;91960;-75
2022/05/24 02:41:48;;;;;;;0.00;0.00;;;;;;;;;;5059622;27;92293;-74
2022/05/24 02:44:15;;;;;;;0.00;0.00;;;;;;;;;;5059889;27;92541;-74
2022/05/24 02:46:44;;;;;;;0.00;0.00;;;;;;;;;;5038462;27;96179;-74
2022/05/24 02:49:10;;;;;;;0.00;0.00;;;;;;;;;;5059776;27;92371;-74
2022/05/24 02:51:38;;;;;;;0.00;0.00;;;;;;;;;;5059223;27;93741;-74
2022/05/24 02:54:05;;;;;;;0.00;0.00;;;;;;;;;;5059541;27;92311;-74
2022/05/24 02:56:31;;;;;;;0.00;0.00;;;;;;;;;;5059169;27;93256;-74
2022/05/24 02:59:01;;;;;;;0.00;0.00;;;;;;;;;;5059419;27;93383;-74
2022/05/24 03:01:28;;;;;;;0.00;0.00;;;;;;;;;;5059455;27;92422;-74
2022/05/24 03:03:55;;;;;;;0.10;0.10;;;;;;;;;;5059760;27;93397;-73
2022/05/24 03:06:22;;;;;;;0.00;0.00;;;;;;;;;;5058788;27;93685;-74
2022/05/24 03:14:27;;;;;;;0.00;0.00;;;;;;;;;;5027496;27;93331;-74
2022/05/24 03:16:53;;;;;;;0.10;0.10;;;;;;;;;;5059331;27;93169;-73
2022/05/24 03:19:20;;;;;;;0.00;0.00;;;;;;;;;;5058251;27;94287;-74
2022/05/24 03:21:47;;;;;;;0.35;0.35;;;;;;;;;;5059207;27;92220;-73
2022/05/24 03:24:13;;;;;;;0.00;0.00;;;;;;;;;;5059073;27;93316;-74
2022/05/24 03:26:40;;;;;;;0.00;0.00;;;;;;;;;;5058897;27;92893;-74
2022/05/24 03:29:06;;;;;;;0.00;0.00;;;;;;;;;;5059605;27;91591;-73
2022/05/24 03:31:33;;;;;;;0.00;0.00;;;;;;;;;;5059127;27;93340;-73
2022/05/24 03:34:00;;;;;;;0.00;0.00;;;;;;;;;;5058416;27;92404;-73
2022/05/24 03:36:27;;;;;;;0.30;0.30;;;;;;;;;;5057279;27;94709;-73
2022/05/24 03:38:53;;;;;;;0.13;0.13;;;;;;;;;;5058438;27;93424;-74
2022/05/24 03:41:20;;;;;;;0.00;0.00;;;;;;;;;;5058676;27;92400;-73
2022/05/24 03:43:46;;;;;;;0.00;0.00;;;;;;;;;;5058370;27;93741;-74
2022/05/24 03:46:12;;;;;;;0.00;0.00;;;;;;;;;;5058119;27;92918;-74
2022/05/24 03:48:39;;;;;;;0.00;0.00;;;;;;;;;;5057931;27;92866;-74
2022/05/24 03:51:06;;;;;;;0.00;0.00;;;;;;;;;;5040227;27;94885;-74
2022/05/24 03:53:33;;;;;;;0.10;0.10;;;;;;;;;;5061733;27;91945;-74
2022/05/24 03:55:59;;;;;;;0.00;0.00;;;;;;;;;;5058262;27;92364;-74
2022/05/24 03:58:25;;;;;;;0.00;0.00;;;;;;;;;;5058568;27;92932;-74
2022/05/24 04:00:52;;;;;;;0.00;0.00;;;;;;;;;;5056576;27;95644;-74
2022/05/24 04:03:18;;;;;;;0.00;0.00;;;;;;;;;;5058379;27;95169;-74
2022/05/24 04:05:47;;;;;;;0.00;0.00;;;;;;;;;;5057882;27;93487;-74
2022/05/24 04:08:18;;;;;;;0.00;0.00;;;;;;;;;;5058250;27;92340;-74
2022/05/24 04:10:44;;;;;;;0.00;0.00;;;;;;;;;;5040142;27;94288;-74
2022/05/24 04:13:11;;;;;;;0.00;0.00;;;;;;;;;;5058316;27;93289;-73
2022/05/24 04:15:37;;;;;;;0.00;0.00;;;;;;;;;;5060610;27;92197;-74
2022/05/24 04:18:03;;;;;;;0.00;0.00;;;;;;;;;;5058462;27;93397;-74
2022/05/24 04:20:30;;;;;;;0.00;0.00;;;;;;;;;;5058820;27;92145;-73
2022/05/24 04:22:57;;;;;;;0.00;0.00;;;;;;;;;;5059603;27;93430;-74
2022/05/24 04:25:23;;;;;;;0.00;0.00;;;;;;;;;;5037800;27;95569;-74
2022/05/24 04:27:50;;;;;;;0.00;0.00;;;;;;;;;;5057926;27;92222;-74
2022/05/24 04:30:19;;;;;;;0.00;0.00;;;;;;;;;;5039595;27;93626;-74
2022/05/24 04:32:49;;;;;;;0.00;0.00;;;;;;;;;;5057779;27;93504;-74
2022/05/24 04:35:16;;;;;;;0.00;0.00;;;;;;;;;;5058168;27;92408;-73
2022/05/24 04:37:42;;;;;;;0.00;0.00;;;;;;;;;;5060893;27;93504;-73
2022/05/24 04:40:09;;;;;;;0.00;0.00;;;;;;;;;;5057834;27;92511;-73
2022/05/24 04:42:35;;;;;;;0.00;0.00;;;;;;;;;;5055075;27;93441;-73
2022/05/24 04:45:06;;;;;;;0.00;0.00;;;;;;;;;;5057062;27;94091;-73
2022/05/24 04:47:33;;;;;;;0.00;0.00;;;;;;;;;;5057738;27;92349;-74
2022/05/24 04:50:01;;;;;;;8.20;1.90;;;;;;;;;;5056102;27;94676;-73
2022/05/24 04:52:30;;;;;;;0.00;0.00;;;;;;;;;;5057429;27;93567;-73
2022/05/24 04:54:56;;;;;;;0.10;0.10;;;;;;;;;;5057575;27;94033;-73
2022/05/24 04:57:23;;;;;;;0.00;0.00;;;;;;;;;;5060076;27;92473;-74
2022/05/24 04:59:50;;;;;;;0.00;0.00;;;;;;;;;;5057241;27;92447;-73
2022/05/24 05:02:17;;;;;;;0.00;0.00;;;;;;;;;;5057460;27;93331;-74
2022/05/24 05:04:43;;;;;;;0.00;0.00;;;;;;;;;;5057462;27;94118;-75
2022/05/24 05:07:10;;;;;;;0.10;0.10;;;;;;;;;;5057976;27;91629;-73
2022/05/24 05:09:38;;;;;;;0.03;0.03;;;;;;;;;;5039146;27;93650;-72
2022/05/24 05:12:05;;;;;;;0.00;0.00;;;;;;;;;;5057059;27;93423;-74
2022/05/24 05:14:32;;;;;;;0.03;0.03;;;;;;;;;;5055936;27;94740;-73
2022/05/24 05:17:00;;;;;;;0.00;0.00;;;;;;;;;;5056925;27;96723;-74
2022/05/24 05:19:27;;;;;;;0.00;0.00;;;;;;;;;;5060269;27;93089;-74
2022/05/24 05:21:54;;;;;;;0.00;0.00;;;;;;;;;;5039146;27;94483;-73
2022/05/24 05:24:21;;;;;;;0.00;0.00;;;;;;;;;;5056670;27;93174;-73
2022/05/24 05:26:47;;;;;;;0.00;0.00;;;;;;;;;;5057224;27;92218;-72
2022/05/24 05:29:14;;;;;;;0.00;0.00;;;;;;;;;;5039508;27;93791;-75
2022/05/24 05:31:40;;;;;;;0.13;0.13;;;;;;;;;;5057648;27;92800;-75
2022/05/24 05:34:07;;;;;;;0.10;0.10;;;;;;;;;;5039518;27;92274;-75
2022/05/24 05:36:33;;;;;;;0.00;0.00;;;;;;;;;;5060427;27;92990;-75
2022/05/24 05:39:00;;;;;;;0.10;0.10;;;;;;;;;;5058332;27;95835;-75
2022/05/24 05:41:28;;;;;;;0.05;0.05;;;;;;;;;;5063840;27;92434;-74
2022/05/24 05:43:55;;;;;;;0.20;0.20;;;;;;;;;;5060506;27;93846;-73
2022/05/24 05:46:22;;;;;;;0.00;0.00;;;;;;;;;;5060549;27;92488;-75
2022/05/24 05:48:53;;;;;;;0.13;0.13;;;;;;;;;;5042279;27;94300;-74
2022/05/24 05:51:20;;;;;;;0.00;0.00;;;;;;;;;;5060035;27;94576;-75
2022/05/24 05:53:48;;;;;;;0.00;0.00;;;;;;;;;;5060231;27;92374;-76
2022/05/24 05:56:17;;;;;;;0.00;0.00;;;;;;;;;;5060899;27;93467;-75
2022/05/24 05:58:43;;;;;;;0.00;0.00;;;;;;;;;;5055846;27;93673;-75
2022/05/24 06:01:17;;;;;;;0.00;0.00;;;;;;;;;;5025490;27;92303;-75
2022/05/24 06:03:44;;;;;;;0.00;0.00;;;;;;;;;;5061842;27;94674;-76
2022/05/24 06:06:12;;;;;;;0.00;0.00;;;;;;;;;;5059580;27;92454;-72
2022/05/24 06:08:39;;;;;;;0.10;0.10;;;;;;;;;;5060044;27;93318;-75
2022/05/24 06:11:05;;;;;;;0.00;0.00;;;;;;;;;;5059974;27;94067;-75
2022/05/24 06:13:31;;;;;;;0.00;0.00;;;;;;;;;;5060304;27;92195;-74
2022/05/24 06:15:58;;;;;;;0.00;0.00;;;;;;;;;;5060122;27;93296;-75
2022/05/24 06:21:35;;;;;;;0.00;0.00;;;;;;;;;;5060799;27;91582;-75
2022/05/24 06:24:05;;;;;;;0.00;0.00;;;;;;;;;;5060053;27;92526;-75
2022/05/24 06:26:32;;;;;;;0.00;0.00;;;;;;;;;;5062693;27;94144;-75
2022/05/24 06:28:59;;;;;;;0.00;0.00;;;;;;;;;;5059307;27;95349;-74
2022/05/24 06:31:25;;;;;;;0.00;0.00;;;;;;;;;;5060171;27;93949;-74
2022/05/24 06:33:52;;;;;;;0.45;0.45;;;;;;;;;;5059862;27;92295;-73
2022/05/24 06:36:18;;;;;;;0.85;0.85;;;;;;;;;;5041679;27;94654;-74
2022/05/24 06:38:45;;;;;;;0.00;0.00;;;;;;;;;;5059165;27;94183;-72
2022/05/24 06:41:11;;;;;;;0.00;0.00;;;;;;;;;;5059760;27;92302;-73
2022/05/24 06:43:37;;;;;;;0.10;0.10;;;;;;;;;;5041751;27;93688;-73
2022/05/24 06:46:07;;;;;;;0.13;0.13;;;;;;;;;;5041620;27;94026;-73
2022/05/24 06:48:40;;;;;;;0.00;0.00;;;;;;;;;;5061728;27;92402;-73
2022/05/24 06:51:10;;;;;;;0.00;0.00;;;;;;;;;;5059034;27;94994;-73
2022/05/24 06:53:38;;;;;;;0.00;0.00;;;;;;;;;;5057483;27;94592;-73
2022/05/24 06:56:05;;;;;;;0.00;0.00;;;;;;;;;;5059248;27;96099;-80
2022/05/24 06:58:34;;;;;;;0.00;0.00;;;;;;;;;;5059000;27;93884;-77
2022/05/24 07:03:56;;;;;;;0.00;0.00;;;;;;;;;;5059316;27;92771;-79
2022/05/24 07:06:23;;;;;;;0.00;0.00;;;;;;;;;;5058693;27;92942;-78
2022/05/24 07:09:19;;;;;;;0.20;0.20;;;;;;;;;;5024341;27;92529;-83
2022/05/24 07:11:59;;;;;;;0.00;0.00;;;;;;;;;;5059772;27;92334;-77
2022/05/24 07:14:25;;;;;;;0.00;0.00;;;;;;;;;;5041389;27;92283;-77
2022/05/24 07:16:52;;;;;;;0.00;0.00;;;;;;;;;;5059312;27;93058;-73
2022/05/24 07:19:19;;;;;;;0.00;0.00;;;;;;;;;;5056641;27;96951;-75
2022/05/24 07:21:45;;;;;;;0.00;0.00;;;;;;;;;;5059089;27;92266;-75
2022/05/24 07:24:12;;;;;;;2.95;2.75;;;;;;;;;;5058963;27;93375;-74
2022/05/24 07:26:38;;;;;;;0.00;0.00;;;;;;;;;;5058596;27;94576;-75
2022/05/24 07:29:19;;;;;;;0.17;0.17;;;;;;;;;;5058907;27;92428;-76
2022/05/24 07:31:45;;;;;;;0.47;0.47;;;;;;;;;;5061435;27;93493;-75
2022/05/24 07:34:11;;;;;;;0.10;0.10;;;;;;;;;;5040738;27;92249;-74
2022/05/24 07:36:38;;;;;;;0.25;0.25;;;;;;;;;;5023382;27;93598;-76
2022/05/24 07:39:04;;;;;;;0.00;0.00;;;;;;;;;;5040841;27;93055;-72
2022/05/24 07:47:18;;;;;;;0.00;0.00;;;;;;;;;;5058312;27;93631;-72
2022/05/24 07:49:44;;;;;;;0.00;0.00;;;;;;;;;;5058598;27;92339;-71
2022/05/24 07:52:11;;;;;;;0.00;0.00;;;;;;;;;;5058432;27;93292;-72
2022/05/24 07:54:37;;;;;;;0.00;0.00;;;;;;;;;;5042956;27;94851;-71
2022/05/24 07:57:08;;;;;;;0.03;0.03;;;;;;;;;;5058706;27;93708;-71
2022/05/24 07:59:35;;;;;;;0.00;0.00;;;;;;;;;;5057248;27;92855;-72
2022/05/24 08:02:01;;;;;;;0.00;0.00;;;;;;;;;;5059188;27;91418;-72
2022/05/24 08:04:27;;;;;;;0.00;0.00;;;;;;;;;;5058482;27;92545;-71
2022/05/24 08:06:58;;;;;;;0.13;0.13;;;;;;;;;;5057771;27;93191;-72
2022/05/24 08:09:25;;;;;;;0.00;0.00;;;;;;;;;;5056240;27;94813;-72
2022/05/24 08:11:51;;;;;;;0.00;0.00;;;;;;;;;;5058207;27;95806;-71
2022/05/24 08:14:17;;;;;;;0.08;0.08;;;;;;;;;;5058019;27;93983;-72
2022/05/24 08:16:44;;;;;;;0.00;0.00;;;;;;;;;;5061346;27;92333;-71
2022/05/24 08:19:10;;;;;;;0.00;0.00;;;;;;;;;;5058007;27;93258;-71
2022/05/24 08:21:37;;;;;;;0.00;0.00;;;;;;;;;;5057935;27;92307;-71
2022/05/24 08:24:03;;;;;;;0.00;0.00;;;;;;;;;;5057695;27;92867;-71
2022/05/24 08:26:30;;;;;;;0.00;0.00;;;;;;;;;;5058292;27;92774;-71
2022/05/24 08:28:57;;;;;;;0.00;0.00;;;;;;;;;;5057863;27;92345;-71
2022/05/24 08:31:23;;;;;;;0.00;0.00;;;;;;;;;;5058110;27;93159;-71
2022/05/24 08:33:51;;;;;;;0.00;0.00;;;;;;;;;;5056271;27;94768;-71
2022/05/24 08:36:18;;;;;;;0.00;0.00;;;;;;;;;;5057114;27;92282;-71
2022/05/24 08:38:44;;;;;;;0.00;0.00;;;;;;;;;;5060796;27;93430;-72
2022/05/24 08:41:14;;;;;;;0.00;0.00;;;;;;;;;;5057774;27;92205;-76
2022/05/24 08:43:40;;;;;;;0.00;0.00;;;;;;;;;;5057851;27;93791;-76
2022/05/24 08:49:06;;;;;;;0.40;0.30;;;;;;;;;;5057268;27;92278;-76
2022/05/24 08:51:51;;;;;;;0.10;0.10;;;;;;;;;;5040329;27;93405;-76
2022/05/24 08:54:41;;;;;;;0.00;0.00;;;;;;;;;;5057392;27;93264;-76
2022/05/24 08:57:10;;;;;;;0.00;0.00;;;;;;;;;;5044489;27;92393;-78
2022/05/24 08:59:40;;;;;;;0.00;0.00;;;;;;;;;;5056102;27;95481;-77
2022/05/24 09:02:07;;;;;;;0.00;0.00;;;;;;;;;;5060561;27;92089;-76
2022/05/24 09:04:34;;;;;;;0.08;0.08;;;;;;;;;;5057322;27;93357;-77
2022/05/24 09:07:18;;;;;;;0.00;0.00;;;;;;;;;;5056816;27;93715;-75
2022/05/24 09:09:48;;;;;;;0.10;0.10;;;;;;;;;;5058061;27;92433;-77
2022/05/24 09:12:33;;;;;;;0.08;0.08;;;;;;;;;;5064097;27;93331;-78
2022/05/24 09:15:06;;;;;;;0.10;0.10;;;;;;;;;;5063883;27;93533;-77
2022/05/24 09:17:39;;;;;;;0.00;0.00;;;;;;;;;;5064622;27;91525;-78
2022/05/24 09:20:09;;;;;;;0.00;0.00;;;;;;;;;;5063875;27;92782;-76
2022/05/24 09:22:36;;;;;;;0.00;0.00;;;;;;;;;;5048996;27;92770;-75
2022/05/24 09:25:14;;;;;;;;;;;;;;;;;;;;;
2022/05/24 09:27:53;;;;;;;0.00;0.00;;;;;;;;;;5063767;27;93397;-78
2022/05/24 09:30:20;;;;;;;0.03;0.03;;;;;;;;;;5063732;27;92437;-80
2022/05/24 09:32:46;;;;;;;0.00;0.00;;;;;;;;;;5063671;27;93304;-81
2022/05/24 09:35:18;;;;;;;0.00;0.00;;;;;;;;;;5046667;27;93508;-80
2022/05/24 09:37:56;;;;;;;0.00;0.00;;;;;;;;;;5064083;27;92199;-83
2022/05/24 09:40:24;;;;;;;0.00;0.00;;;;;;;;;;5045755;27;95829;-78
2022/05/24 09:42:51;;;;;;;0.00;0.00;;;;;;;;;;5064691;27;92229;-78
2022/05/24 09:45:27;;;;;;;0.00;0.00;;;;;;;;;;5048268;27;92310;-81
2022/05/24 09:47:57;;;;;;;0.00;0.00;;;;;;;;;;5045896;27;93770;-80
2022/05/24 09:50:35;;;;;;;0.00;0.00;;;;;;;;;;5044169;27;94724;-77
2022/05/24 09:53:04;;;;;;;0.00;0.00;;;;;;;;;;5045929;27;95709;-80
2022/05/24 09:55:39;;;;;;;0.00;0.00;;;;;;;;;;5063419;27;93509;-78
2022/05/24 09:58:20;;;;;;;0.00;0.00;;;;;;;;;;5063805;27;92360;-78
2022/05/24 10:01:13;;;;;;;0.00;0.00;;;;;;;;;;5030831;27;95189;-77
2022/05/24 10:04:08;;;;;;;0.00;0.00;;;;;;;;;;5046038;27;93345;-79
2022/05/24 10:06:42;;;;;;;0.03;0.03;;;;;;;;;;5027006;27;92387;-79
2022/05/24 10:09:18;;;;;;;0.00;0.00;;;;;;;;;;5049203;27;93176;-79
2022/05/24 10:11:49;;;;;;;0.00;0.00;;;;;;;;;;5063441;27;92328;-76
2022/05/24 10:14:34;;;;;;;0.00;0.00;;;;;;;;;;5063229;27;92704;-80
2022/05/24 10:17:46;;;;;;;0.00;0.00;;;;;;;;;;5061580;27;95870;-82
2022/05/24 10:20:25;;;;;;;0.08;0.08;;;;;;;;;;5047363;27;92358;-79
2022/05/24 10:22:57;;;;;;;0.00;0.00;;;;;;;;;;5059353;27;92787;-78
2022/05/24 10:26:12;;;;;;;0.00;0.00;;;;;;;;;;5059778;27;93394;-83
2022/05/24 10:28:58;;;;;;;0.00;0.00;;;;;;;;;;4948765;28;92558;-77
2022/05/24 10:31:43;;;;;;;0.00;0.00;;;;;;;;;;4958067;28;93499;-77
2022/05/24 10:38:17;;;;;;;0.00;0.00;;;;;;;;;;5060654;27;92597;-77
2022/05/24 10:39:57;;;;;;;0.00;0.00;;;;;;;;;;5038696;28;93012;-75
2022/05/24 10:42:27;;;;;;;0.00;0.00;;;;;;;;;;5039350;28;92157;-74
2022/05/24 10:44:53;;;;;;;0.00;0.00;;;;;;;;;;5019871;28;94659;-76
2022/05/24 10:47:35;;;;;;;0.00;0.00;;;;;;;;;;5039283;28;93086;-73
2022/05/24 10:50:05;;;;;;;0.00;0.00;;;;;;;;;;5038910;28;92366;-73
2022/05/24 10:52:43;;;;;;;1.25;1.20;;;;;;;;;;5039056;28;93273;-74
2022/05/24 10:55:15;;;;;;;0.30;0.30;;;;;;;;;;5020778;28;94599;-73
2022/05/24 10:58:02;;;;;;;0.10;0.10;;;;;;;;;;5042313;28;92181;-74
2022/05/24 11:00:37;;;;;;;0.13;0.13;;;;;;;;;;5037834;28;93612;-73
2022/05/24 11:03:23;;;;;;;0.00;0.00;;;;;;;;;;5039424;28;92506;-74
2022/05/24 11:05:59;;;;;;;0.00;0.00;;;;;;;;;;5038622;28;92732;-73
2022/05/24 11:08:32;;;;;;;0.00;0.00;;;;;;;;;;5038885;28;93725;-73
2022/05/24 11:11:01;;;;;;;0.00;0.00;;;;;;;;;;5019428;28;94828;-73
2022/05/24 11:13:36;;;;;;;0.00;0.00;;;;;;;;;;5021236;28;95760;-74
2022/05/24 11:16:07;;;;;;;0.00;0.00;;;;;;;;;;5038712;28;93690;-74
2022/05/24 11:18:39;;;;;;;0.00;0.00;;;;;;;;;;5038772;28;92124;-73
2022/05/24 11:21:12;;;;;;;0.10;0.10;;;;;;;;;;5041352;28;93559;-73
2022/05/24 11:23:50;;;;;;;0.10;0.10;;;;;;;;;;5038677;28;92257;-74
2022/05/24 11:26:20;;;;;;;0.03;0.03;;;;;;;;;;5038374;28;94614;-73
2022/05/24 11:28:50;;;;;;;0.05;0.05;;;;;;;;;;5038747;28;92716;-73
2022/05/24 11:31:35;;;;;;;0.20;0.20;;;;;;;;;;5038781;28;92500;-74
2022/05/24 11:34:10;;;;;;;0.00;0.00;;;;;;;;;;5038547;27;93431;-75
2022/05/24 11:36:41;;;;;;;0.10;0.10;;;;;;;;;;5036402;28;96685;-72
2022/05/24 11:39:14;;;;;;;0.03;0.03;;;;;;;;;;5038368;28;93970;-75
2022/05/24 11:41:41;;;;;;;0.08;0.08;;;;;;;;;;5041195;28;94269;-75
2022/05/24 11:44:26;;;;;;;0.10;0.10;;;;;;;;;;5037832;28;92356;-76
2022/05/24 11:46:56;;;;;;;0.45;0.45;;;;;;;;;;5038102;28;93819;-76
2022/05/24 11:49:22;;;;;;;0.17;0.17;;;;;;;;;;5038180;28;93257;-76
2022/05/24 11:51:50;;;;;;;0.00;0.00;;;;;;;;;;5037857;28;92261;-76
2022/05/24 11:54:21;;;;;;;0.10;0.10;;;;;;;;;;5038714;28;93402;-76
2022/05/24 11:57:03;;;;;;;0.05;0.05;;;;;;;;;;5037452;28;94046;-76
2022/05/24 11:59:39;;;;;;;0.00;0.00;;;;;;;;;;5020175;28;92231;-76
2022/05/24 12:02:32;;;;;;;0.10;0.10;;;;;;;;;;5036667;28;94603;-75
2022/05/24 12:07:56;;;;;;;0.00;0.00;;;;;;;;;;5037959;28;93370;-76
2022/05/24 12:10:22;;;;;;;0.00;0.00;;;;;;;;;;5037904;28;93427;-76
2022/05/24 12:12:50;;;;;;;0.10;0.10;;;;;;;;;;5037748;27;92328;-76
2022/05/24 12:15:22;;;;;;;0.10;0.10;;;;;;;;;;5047586;27;93224;-76
2022/05/24 12:18:08;;;;;;;0.15;0.15;;;;;;;;;;5052238;27;93643;-76
2022/05/24 12:20:34;;;;;;;0.35;0.35;;;;;;;;;;5040468;27;91485;-74
2022/05/24 12:23:04;;;;;;;0.20;0.20;;;;;;;;;;5058091;27;92669;-74
2022/05/24 12:25:55;;;;;;;0.10;0.10;;;;;;;;;;5058143;27;93234;-75
2022/05/24 12:28:23;;;;;;;0.00;0.00;;;;;;;;;;5059639;27;94659;-76
2022/05/24 12:30:50;;;;;;;0.00;0.00;;;;;;;;;;5040149;27;93885;-76
2022/05/24 12:33:22;;;;;;;0.00;0.00;;;;;;;;;;5057765;27;92314;-76
2022/05/24 12:35:56;;;;;;;0.10;0.10;;;;;;;;;;5040125;27;93884;-75
2022/05/24 12:38:24;;;;;;;0.08;0.08;;;;;;;;;;5039350;27;94719;-74
2022/05/24 12:41:04;;;;;;;0.00;0.00;;;;;;;;;;5057845;27;92266;-75
2022/05/24 12:43:30;;;;;;;0.10;0.10;;;;;;;;;;5057838;27;93276;-74
2022/05/24 12:45:59;;;;;;;0.10;0.10;;;;;;;;;;5057368;27;92873;-74
2022/05/24 12:48:32;;;;;;;0.00;0.00;;;;;;;;;;5057761;27;92510;-74
2022/05/24 12:51:08;;;;;;;0.00;0.00;;;;;;;;;;5060124;27;93733;-77
2022/05/24 12:53:36;;;;;;;0.00;0.00;;;;;;;;;;5056056;27;95028;-77
2022/05/24 12:56:08;;;;;;;0.10;0.10;;;;;;;;;;5057465;27;96596;-73
2022/05/24 12:58:39;;;;;;;0.00;0.00;;;;;;;;;;5039573;27;93970;-77
2022/05/24 13:01:23;;;;;;;0.00;0.00;;;;;;;;;;5057649;27;92184;-75
2022/05/24 13:03:52;;;;;;;0.10;0.10;;;;;;;;;;5054478;27;93607;-75
2022/05/24 13:06:31;;;;;;;0.00;0.00;;;;;;;;;;5038809;27;94436;-75
2022/05/24 13:08:58;;;;;;;;;;;;;;;;;;5057432;27;92350;-75
2022/05/24 13:11:24;;;;;;;0.00;0.00;;;;;;;;;;5056967;27;121562;-81
2022/05/24 13:13:50;;;;;;;0.10;0.10;;;;;;;;;;5060407;27;93029;-76
2022/05/24 13:16:17;;;;;;;0.00;0.00;;;;;;;;;;5057428;27;92751;-75
2022/05/24 13:18:47;;;;;;;0.00;0.00;;;;;;;;;;5055398;27;95742;-75
2022/05/24 13:21:15;;;;;;;0.10;0.10;;;;;;;;;;5057202;27;92266;-77
2022/05/24 13:23:42;;;;;;;0.10;0.10;;;;;;;;;;5057193;27;93341;-75
2022/05/24 13:26:09;;;;;;;0.00;0.00;;;;;;;;;;5057044;27;93091;-76
2022/05/24 13:28:35;;;;;;;0.22;0.22;;;;;;;;;;5056750;27;92428;-76
2022/05/24 13:33:52;;;;;;;0.00;0.00;;;;;;;;;;5056701;27;94586;-74
2022/05/24 13:36:20;;;;;;;0.10;0.10;;;;;;;;;;5060828;27;91623;-77
2022/05/24 13:38:52;;;;;;;0.00;0.00;;;;;;;;;;5056498;27;93662;-76
2022/05/24 13:41:18;;;;;;;;;;;;;;;;;;5057459;27;92188;-78
2022/05/24 13:43:45;;;;;;;0.65;0.65;;;;;;;;;;5054717;27;121794;-73
2022/05/24 13:46:21;;;;;;;0.30;0.30;;;;;;;;;;5056673;27;94131;-71
2022/05/24 13:48:55;;;;;;;0.20;0.20;;;;;;;;;;5054026;27;92181;-76
2022/05/24 13:51:27;;;;;;;0.00;0.00;;;;;;;;;;5056431;27;93533;-71
2022/05/24 13:53:55;;;;;;;0.00;0.00;;;;;;;;;;5056698;27;93455;-72
2022/05/24 13:56:23;;;;;;;0.10;0.10;;;;;;;;;;5059537;27;92287;-71
2022/05/24 13:59:02;;;;;;;0.00;0.00;;;;;;;;;;5060117;27;93375;-72
2022/05/24 14:01:38;;;;;;;0.00;0.00;;;;;;;;;;5060477;27;91517;-79
2022/05/24 14:04:11;;;;;;;0.00;0.00;;;;;;;;;;5041931;27;93142;-77
2022/05/24 14:06:39;;;;;;;0.00;0.00;;;;;;;;;;5059453;27;94367;-76
2022/05/24 14:09:06;;;;;;;0.00;0.00;;;;;;;;;;5058314;27;94650;-76
2022/05/24 14:11:33;;;;;;;0.08;0.08;;;;;;;;;;5060038;27;95994;-77
2022/05/24 14:14:00;;;;;;;0.00;0.00;;;;;;;;;;5059991;27;94118;-76
2022/05/24 14:16:31;;;;;;;0.00;0.00;;;;;;;;;;5059672;27;92260;-78
2022/05/24 14:18:57;;;;;;;0.00;0.00;;;;;;;;;;5063448;27;93088;-74
2022/05/24 14:21:33;;;;;;;0.00;0.00;;;;;;;;;;5060190;27;92406;-77
2022/05/24 14:24:00;;;;;;;0.10;0.10;;;;;;;;;;5060118;27;93454;-76
2022/05/24 14:26:26;;;;;;;0.00;0.00;;;;;;;;;;5060284;27;93506;-75
2022/05/24 14:28:53;;;;;;;0.00;0.00;;;;;;;;;;5059300;27;92390;-74
2022/05/24 14:31:21;;;;;;;0.10;0.10;;;;;;;;;;5059922;27;94410;-74
2022/05/24 14:33:48;;;;;;;0.10;0.10;;;;;;;;;;5057751;27;95832;-75
2022/05/24 14:36:14;;;;;;;0.00;0.00;;;;;;;;;;5060076;27;92383;-74
2022/05/24 14:38:41;;;;;;;0.00;0.00;;;;;;;;;;5041605;27;94764;-77
2022/05/24 14:41:17;;;;;;;0.10;0.10;;;;;;;;;;5062591;27;93778;-75
2022/05/24 14:43:59;;;;;;;0.00;0.00;;;;;;;;;;5059802;27;93770;-76
2022/05/24 14:46:28;;;;;;;0.00;0.00;;;;;;;;;;5059846;27;93510;-82
2022/05/24 14:48:56;;;;;;;0.00;0.00;;;;;;;;;;5042518;27;92379;-80
2022/05/24 14:51:52;;;;;;;0.00;0.00;;;;;;;;;;5005771;27;93113;-81
2022/05/24 14:54:24;;;;;;;0.00;0.00;;;;;;;;;;5042274;27;92278;-84
2022/05/24 14:56:54;;;;;;;0.00;0.00;;;;;;;;;;5059741;27;92446;-78
2022/05/24 14:59:25;;;;;;;0.00;0.00;;;;;;;;;;5058079;27;94619;-78
2022/05/24 15:01:51;;;;;;;0.05;0.05;;;;;;;;;;5041730;27;93126;-78
2022/05/24 15:04:18;;;;;;;0.10;0.10;;;;;;;;;;5062213;27;92271;-76
2022/05/24 15:06:47;;;;;;;0.10;0.10;;;;;;;;;;5058915;27;93014;-81
2022/05/24 15:15:20;;;;;;;2.63;0.30;;;;;;;;;;5016038;27;96173;-81
2022/05/24 15:18:34;;;;;;;0.10;0.10;;;;;;;;;;5047759;27;91682;-80
2022/05/24 15:21:10;;;;;;;0.10;0.10;;;;;;;;;;5058010;27;94644;-81
2022/05/24 15:23:38;;;;;;;0.10;0.10;;;;;;;;;;5058370;27;94254;-77
2022/05/24 15:26:06;;;;;;;0.10;0.10;;;;;;;;;;5057432;27;94760;-76
2022/05/24 15:28:37;;;;;;;0.00;0.00;;;;;;;;;;5061462;27;96673;-77
2022/05/24 15:31:03;;;;;;;0.00;0.00;;;;;;;;;;5058561;27;92316;-77
2022/05/24 15:33:30;;;;;;;0.22;0.22;;;;;;;;;;5058984;27;92847;-77
2022/05/24 15:35:56;;;;;;;0.10;0.10;;;;;;;;;;5058676;27;93208;-78
2022/05/24 15:38:22;;;;;;;0.00;0.00;;;;;;;;;;5058826;27;92381;-77
2022/05/24 15:40:49;;;;;;;0.00;0.00;;;;;;;;;;5040464;27;96058;-78
2022/05/24 15:43:15;;;;;;;0.00;0.00;;;;;;;;;;5059140;27;92282;-77
2022/05/24 15:45:46;;;;;;;0.03;0.03;;;;;;;;;;5058396;27;92479;-81